Time;durP1;ratioP1;P1;durP2;ratioP2;P2;SDS_P1;SDS_P2;PMS_P1;PMS_P2;Temp;Humidity;BMP_temperature;BMP_pressure;BME280_temperature;BME280_humidity;BME280_pressure;Samples;Min_cycle;Max_cycle;Signal;HPM_P1;HPM_P2
2022/10/12 00:01:35;;;;;;;2.90;1.60;;;;;;;;;;5135854;28;20215;-82
2022/10/12 00:04:02;;;;;;;3.53;1.10;;;;;;;;;;5135285;27;20290;-82
2022/10/12 00:06:30;;;;;;;2.30;1.30;;;;;;;;;;5134960;28;20322;-82
2022/10/12 00:08:57;;;;;;;3.03;1.52;;;;;;;;;;5135129;28;20280;-82
2022/10/12 00:11:28;;;;;;;1.88;1.33;;;;;;;;;;5137273;27;20290;-83
2022/10/12 00:13:57;;;;;;;2.60;1.20;;;;;;;;;;5138773;27;20205;-83
2022/10/12 00:16:30;;;;;;;4.93;1.40;;;;;;;;;;5139186;27;20194;-83
2022/10/12 00:18:58;;;;;;;2.85;1.77;;;;;;;;;;5138354;27;20575;-82
2022/10/12 00:21:27;;;;;;;1.65;1.48;;;;;;;;;;5137788;27;20199;-82
2022/10/12 00:23:57;;;;;;;1.40;1.30;;;;;;;;;;5137955;27;20302;-82
2022/10/12 00:26:26;;;;;;;1.65;1.10;;;;;;;;;;5138174;27;20206;-83
2022/10/12 00:28:59;;;;;;;2.58;1.45;;;;;;;;;;5137957;27;20230;-81
2022/10/12 00:31:29;;;;;;;1.60;1.48;;;;;;;;;;5138620;27;20207;-82
2022/10/12 00:33:59;;;;;;;1.33;1.23;;;;;;;;;;5138442;27;20185;-83
2022/10/12 00:36:28;;;;;;;1.80;1.58;;;;;;;;;;5138358;27;20278;-81
2022/10/12 00:38:57;;;;;;;4.97;1.63;;;;;;;;;;5138326;27;20218;-81
2022/10/12 00:41:28;;;;;;;3.63;2.13;;;;;;;;;;5138382;27;20290;-83
2022/10/12 00:43:56;;;;;;;2.72;1.30;;;;;;;;;;5138779;27;20182;-82
2022/10/12 00:46:29;;;;;;;3.45;1.50;;;;;;;;;;5138000;27;20226;-82
2022/10/12 00:49:00;;;;;;;1.85;1.35;;;;;;;;;;5138136;27;20223;-82
2022/10/12 00:51:28;;;;;;;2.50;2.05;;;;;;;;;;5138564;27;20190;-81
2022/10/12 00:53:59;;;;;;;4.45;1.50;;;;;;;;;;5137846;27;20222;-81
2022/10/12 00:56:29;;;;;;;3.00;1.70;;;;;;;;;;5138802;27;20270;-82
2022/10/12 00:59:00;;;;;;;1.98;1.50;;;;;;;;;;5137735;27;20709;-83
2022/10/12 01:01:31;;;;;;;4.97;2.30;;;;;;;;;;5138387;27;20256;-80
2022/10/12 01:03:59;;;;;;;1.48;1.30;;;;;;;;;;5137482;27;20650;-81
2022/10/12 01:06:26;;;;;;;1.40;1.30;;;;;;;;;;5137933;27;20298;-81
2022/10/12 01:08:55;;;;;;;3.50;1.83;;;;;;;;;;5137543;27;20250;-81
2022/10/12 01:11:23;;;;;;;2.70;1.70;;;;;;;;;;5137742;27;20227;-81
2022/10/12 01:13:50;;;;;;;2.47;1.50;;;;;;;;;;5137640;27;20290;-81
2022/10/12 01:16:22;;;;;;;1.48;1.17;;;;;;;;;;5137356;27;20234;-81
2022/10/12 01:18:57;;;;;;;1.77;1.40;;;;;;;;;;5137405;27;20213;-81
2022/10/12 01:21:26;;;;;;;1.98;1.60;;;;;;;;;;5137308;27;20528;-80
2022/10/12 01:24:18;;;;;;;2.97;2.17;;;;;;;;;;5136346;27;20295;-81
2022/10/12 01:27:03;;;;;;;1.75;1.30;;;;;;;;;;5137282;27;20741;-82
2022/10/12 01:30:00;;;;;;;1.58;1.20;;;;;;;;;;5136738;27;20222;-81
2022/10/12 01:32:33;;;;;;;3.20;1.80;;;;;;;;;;5137383;27;20570;-81
2022/10/12 01:35:08;;;;;;;2.20;2.00;;;;;;;;;;5136787;27;20266;-82
2022/10/12 01:37:44;;;;;;;1.48;1.25;;;;;;;;;;5136990;27;20177;-81
2022/10/12 01:40:16;;;;;;;2.17;1.30;;;;;;;;;;5136935;27;20645;-80
2022/10/12 01:42:44;;;;;;;3.40;1.67;;;;;;;;;;5137211;27;20270;-80
2022/10/12 01:45:15;;;;;;;2.45;1.45;;;;;;;;;;5136792;27;20306;-82
2022/10/12 01:47:47;;;;;;;1.58;1.45;;;;;;;;;;5136771;27;20218;-82
2022/10/12 01:50:15;;;;;;;7.95;1.60;;;;;;;;;;5136859;27;20184;-81
2022/10/12 01:52:51;;;;;;;3.67;1.60;;;;;;;;;;5137031;27;20951;-82
2022/10/12 01:55:32;;;;;;;6.32;1.50;;;;;;;;;;5137123;27;20179;-81
2022/10/12 01:58:18;;;;;;;11.35;2.00;;;;;;;;;;5137405;27;20184;-81
2022/10/12 02:01:00;;;;;;;3.40;2.00;;;;;;;;;;5136688;27;20203;-80
2022/10/12 02:03:36;;;;;;;2.03;1.58;;;;;;;;;;5136627;27;20179;-80
2022/10/12 02:06:08;;;;;;;2.63;1.90;;;;;;;;;;5135629;27;20302;-80
2022/10/12 02:08:41;;;;;;;2.10;1.80;;;;;;;;;;5136927;27;20219;-81
2022/10/12 02:11:11;;;;;;;5.07;1.45;;;;;;;;;;5136825;27;20189;-82
2022/10/12 02:13:42;;;;;;;4.38;2.00;;;;;;;;;;5136308;27;20290;-81
2022/10/12 02:16:14;;;;;;;2.42;1.35;;;;;;;;;;5136241;27;20199;-82
2022/10/12 02:18:44;;;;;;;2.78;1.95;;;;;;;;;;5136276;27;20215;-82
2022/10/12 02:21:15;;;;;;;1.60;1.50;;;;;;;;;;5136375;27;20655;-82
2022/10/12 02:23:44;;;;;;;1.77;1.40;;;;;;;;;;5136555;27;20671;-81
2022/10/12 02:26:12;;;;;;;4.30;1.40;;;;;;;;;;5136731;27;20203;-81
2022/10/12 02:28:40;;;;;;;2.58;1.88;;;;;;;;;;5135876;27;20311;-81
2022/10/12 02:31:15;;;;;;;2.67;1.70;;;;;;;;;;5136956;27;20294;-82
2022/10/12 02:33:48;;;;;;;4.80;1.77;;;;;;;;;;5135999;27;20172;-82
2022/10/12 02:36:23;;;;;;;3.47;1.85;;;;;;;;;;5136058;27;20563;-80
2022/10/12 02:38:55;;;;;;;1.92;1.83;;;;;;;;;;5135911;27;20222;-81
2022/10/12 02:41:28;;;;;;;5.50;1.80;;;;;;;;;;5136171;27;20188;-81
2022/10/12 02:43:59;;;;;;;3.03;1.63;;;;;;;;;;5135472;27;20202;-81
2022/10/12 02:46:28;;;;;;;2.78;1.88;;;;;;;;;;5135847;27;20211;-81
2022/10/12 02:48:58;;;;;;;2.58;1.73;;;;;;;;;;5135580;27;20586;-81
2022/10/12 02:51:27;;;;;;;1.95;1.70;;;;;;;;;;5135502;27;20199;-81
2022/10/12 02:53:55;;;;;;;1.90;1.52;;;;;;;;;;5135519;27;20203;-81
2022/10/12 02:56:22;;;;;;;1.92;1.30;;;;;;;;;;5136010;27;20218;-81
2022/10/12 02:58:50;;;;;;;2.53;1.75;;;;;;;;;;5135649;27;20607;-83
2022/10/12 03:01:18;;;;;;;3.28;1.52;;;;;;;;;;5135154;27;20323;-81
2022/10/12 03:03:46;;;;;;;1.55;1.45;;;;;;;;;;5135189;27;20630;-81
2022/10/12 03:06:14;;;;;;;6.72;2.08;;;;;;;;;;5134774;27;20293;-82
2022/10/12 03:08:42;;;;;;;2.22;1.60;;;;;;;;;;5135159;27;20265;-83
2022/10/12 03:11:13;;;;;;;1.98;1.77;;;;;;;;;;5134948;27;20234;-83
2022/10/12 03:13:41;;;;;;;2.05;1.50;;;;;;;;;;5135124;27;20195;-82
2022/10/12 03:16:10;;;;;;;2.95;1.80;;;;;;;;;;5133961;27;20565;-83
2022/10/12 03:18:39;;;;;;;3.25;1.40;;;;;;;;;;5134842;28;20211;-81
2022/10/12 03:21:07;;;;;;;3.30;2.03;;;;;;;;;;5135247;27;20197;-82
2022/10/12 03:23:36;;;;;;;2.95;2.08;;;;;;;;;;5135291;28;20730;-82
2022/10/12 03:26:03;;;;;;;2.72;1.80;;;;;;;;;;5135511;27;20294;-81
2022/10/12 03:28:31;;;;;;;1.80;1.67;;;;;;;;;;5134750;27;20690;-82
2022/10/12 03:30:59;;;;;;;1.85;1.40;;;;;;;;;;5135751;27;20209;-81
2022/10/12 03:33:27;;;;;;;2.33;1.70;;;;;;;;;;5135643;28;20199;-82
2022/10/12 03:35:54;;;;;;;1.77;1.35;;;;;;;;;;5135848;28;20226;-81
2022/10/12 03:38:22;;;;;;;1.80;1.58;;;;;;;;;;5135235;28;20303;-81
2022/10/12 03:40:51;;;;;;;3.38;2.17;;;;;;;;;;5135176;28;20198;-80
2022/10/12 03:43:18;;;;;;;2.65;2.35;;;;;;;;;;5135388;28;20294;-83
2022/10/12 03:45:46;;;;;;;1.67;1.58;;;;;;;;;;5137148;27;20241;-81
2022/10/12 03:48:13;;;;;;;3.60;2.00;;;;;;;;;;5139498;27;20226;-82
2022/10/12 03:50:41;;;;;;;3.13;2.00;;;;;;;;;;5140349;27;20674;-81
2022/10/12 03:53:08;;;;;;;2.35;1.90;;;;;;;;;;5139666;27;20226;-81
2022/10/12 03:55:36;;;;;;;3.78;1.90;;;;;;;;;;5139366;27;20219;-80
2022/10/12 03:58:04;;;;;;;2.08;1.85;;;;;;;;;;5138482;27;20205;-82
2022/10/12 04:00:32;;;;;;;2.55;1.95;;;;;;;;;;5138804;27;20262;-82
2022/10/12 04:03:00;;;;;;;2.95;1.95;;;;;;;;;;5138668;27;20249;-83
2022/10/12 04:05:28;;;;;;;4.05;1.90;;;;;;;;;;5138570;27;20195;-82
2022/10/12 04:07:55;;;;;;;3.92;1.95;;;;;;;;;;5138358;27;20230;-82
2022/10/12 04:10:23;;;;;;;2.67;1.77;;;;;;;;;;5139303;27;20236;-84
2022/10/12 04:12:51;;;;;;;3.28;2.72;;;;;;;;;;5138622;27;20978;-82
2022/10/12 04:15:20;;;;;;;3.65;2.08;;;;;;;;;;5138713;27;20289;-84
2022/10/12 04:17:47;;;;;;;3.08;2.05;;;;;;;;;;5138735;27;20245;-83
2022/10/12 04:20:15;;;;;;;2.95;1.90;;;;;;;;;;5138331;27;20294;-84
2022/10/12 04:22:43;;;;;;;2.10;1.90;;;;;;;;;;5139609;27;20282;-82
2022/10/12 04:25:11;;;;;;;2.53;1.75;;;;;;;;;;5138522;27;20266;-82
2022/10/12 04:27:38;;;;;;;2.78;2.40;;;;;;;;;;5138783;27;20274;-83
2022/10/12 04:30:07;;;;;;;2.83;2.13;;;;;;;;;;5138673;27;20736;-82
2022/10/12 04:32:36;;;;;;;7.40;1.92;;;;;;;;;;5138324;27;20195;-82
2022/10/12 04:35:04;;;;;;;3.70;1.90;;;;;;;;;;5139015;27;20290;-82
2022/10/12 04:37:32;;;;;;;3.95;1.63;;;;;;;;;;5138816;27;20290;-82
2022/10/12 04:39:59;;;;;;;2.85;1.92;;;;;;;;;;5138026;27;20247;-82
2022/10/12 04:42:26;;;;;;;2.30;1.60;;;;;;;;;;5138313;27;20191;-82
2022/10/12 04:44:54;;;;;;;1.70;1.60;;;;;;;;;;5138606;27;20623;-82
2022/10/12 04:47:21;;;;;;;2.42;1.92;;;;;;;;;;5138687;27;20222;-82
2022/10/12 04:49:50;;;;;;;1.80;1.70;;;;;;;;;;5139559;27;20265;-84
2022/10/12 04:52:18;;;;;;;3.35;2.10;;;;;;;;;;5140823;27;20195;-82
2022/10/12 04:54:46;;;;;;;2.70;1.60;;;;;;;;;;5138071;27;20668;-83
2022/10/12 04:57:13;;;;;;;7.53;2.42;;;;;;;;;;5138957;27;20252;-82
2022/10/12 04:59:40;;;;;;;2.28;1.73;;;;;;;;;;5137774;27;20254;-83
2022/10/12 05:02:08;;;;;;;1.75;1.52;;;;;;;;;;5137804;27;20281;-83
2022/10/12 05:04:35;;;;;;;2.28;2.05;;;;;;;;;;5137664;27;20625;-82
2022/10/12 05:07:04;;;;;;;5.40;2.28;;;;;;;;;;5137403;27;20227;-82
2022/10/12 05:09:32;;;;;;;4.80;1.80;;;;;;;;;;5137512;27;20265;-82
2022/10/12 05:11:59;;;;;;;4.22;2.30;;;;;;;;;;5137920;27;20696;-82
2022/10/12 05:14:27;;;;;;;2.75;2.33;;;;;;;;;;5137945;27;20286;-83
2022/10/12 05:16:54;;;;;;;3.20;2.30;;;;;;;;;;5138608;27;20297;-83
2022/10/12 05:19:22;;;;;;;2.28;1.80;;;;;;;;;;5137910;27;20340;-82
2022/10/12 05:21:49;;;;;;;4.05;2.03;;;;;;;;;;5138088;27;20249;-82
2022/10/12 05:24:18;;;;;;;2.63;1.77;;;;;;;;;;5137268;27;20282;-83
2022/10/12 05:26:45;;;;;;;1.38;1.27;;;;;;;;;;5138087;27;20285;-82
2022/10/12 05:29:13;;;;;;;1.88;1.48;;;;;;;;;;5138268;27;20309;-82
2022/10/12 05:31:40;;;;;;;2.17;2.00;;;;;;;;;;5138018;27;20206;-82
2022/10/12 05:34:08;;;;;;;1.95;1.60;;;;;;;;;;5138556;27;20207;-83
2022/10/12 05:36:36;;;;;;;2.47;2.03;;;;;;;;;;5138002;27;20294;-82
2022/10/12 05:39:03;;;;;;;1.98;1.38;;;;;;;;;;5137523;27;20249;-83
2022/10/12 05:41:32;;;;;;;2.35;1.88;;;;;;;;;;5137102;27;20233;-82
2022/10/12 05:44:00;;;;;;;2.95;1.92;;;;;;;;;;5136363;27;20230;-82
2022/10/12 05:46:27;;;;;;;2.05;1.67;;;;;;;;;;5137049;27;20234;-82
2022/10/12 05:48:55;;;;;;;1.65;1.55;;;;;;;;;;5136833;27;20309;-84
2022/10/12 05:51:22;;;;;;;1.60;1.50;;;;;;;;;;5136736;27;20286;-82
2022/10/12 05:53:49;;;;;;;3.50;1.83;;;;;;;;;;5136911;27;20195;-83
2022/10/12 05:56:17;;;;;;;1.17;1.10;;;;;;;;;;5136641;27;20250;-83
2022/10/12 05:58:46;;;;;;;1.33;1.23;;;;;;;;;;5136220;27;20254;-84
2022/10/12 06:01:15;;;;;;;1.42;1.23;;;;;;;;;;5125871;27;20266;-82
2022/10/12 06:03:43;;;;;;;3.83;1.58;;;;;;;;;;5116791;28;20577;-82
2022/10/12 06:06:11;;;;;;;2.17;1.98;;;;;;;;;;5117252;28;20271;-81
2022/10/12 06:08:38;;;;;;;1.75;1.65;;;;;;;;;;5116403;28;20626;-82
2022/10/12 06:11:06;;;;;;;2.28;1.80;;;;;;;;;;5116963;28;20733;-82
2022/10/12 06:13:33;;;;;;;1.55;1.45;;;;;;;;;;5116974;28;20832;-81
2022/10/12 06:16:02;;;;;;;1.73;1.63;;;;;;;;;;5117335;28;20196;-81
2022/10/12 06:18:30;;;;;;;1.70;1.60;;;;;;;;;;5116303;28;20722;-80
2022/10/12 06:20:57;;;;;;;2.38;2.28;;;;;;;;;;5116472;28;20199;-81
2022/10/12 06:23:25;;;;;;;2.03;1.88;;;;;;;;;;5116401;28;20298;-80
2022/10/12 06:25:53;;;;;;;2.15;1.95;;;;;;;;;;5116043;28;20199;-81
2022/10/12 06:28:21;;;;;;;3.03;2.30;;;;;;;;;;5116748;28;20258;-80
2022/10/12 06:30:54;;;;;;;2.45;2.10;;;;;;;;;;5120372;27;20219;-81
2022/10/12 06:33:23;;;;;;;2.42;1.50;;;;;;;;;;5138586;27;20175;-85
2022/10/12 06:35:50;;;;;;;2.08;1.85;;;;;;;;;;5137009;27;20203;-82
2022/10/12 06:38:18;;;;;;;2.35;2.15;;;;;;;;;;5136207;27;20725;-83
2022/10/12 06:40:45;;;;;;;2.50;2.30;;;;;;;;;;5137292;27;20630;-83
2022/10/12 06:43:13;;;;;;;3.38;2.65;;;;;;;;;;5136955;27;20230;-84
2022/10/12 06:45:41;;;;;;;3.78;3.25;;;;;;;;;;5137107;27;20281;-83
2022/10/12 06:48:09;;;;;;;4.07;3.05;;;;;;;;;;5135760;27;20298;-82
2022/10/12 06:50:38;;;;;;;4.65;3.08;;;;;;;;;;5136113;27;20318;-82
2022/10/12 06:53:06;;;;;;;3.65;2.55;;;;;;;;;;5135534;27;20285;-83
2022/10/12 06:55:33;;;;;;;2.47;2.13;;;;;;;;;;5135757;27;20230;-83
2022/10/12 06:58:01;;;;;;;4.57;2.97;;;;;;;;;;5134892;27;20282;-85
2022/10/12 07:00:28;;;;;;;5.43;3.50;;;;;;;;;;5130385;27;20278;-82
2022/10/12 07:02:57;;;;;;;3.33;3.03;;;;;;;;;;5117606;27;20571;-81
2022/10/12 07:05:26;;;;;;;4.95;3.38;;;;;;;;;;5135448;27;20206;-81
2022/10/12 07:07:55;;;;;;;2.70;2.47;;;;;;;;;;5135932;27;20735;-81
2022/10/12 07:10:23;;;;;;;4.22;3.33;;;;;;;;;;5135915;27;20595;-82
2022/10/12 07:12:51;;;;;;;6.10;3.67;;;;;;;;;;5135611;27;20395;-82
2022/10/12 07:15:18;;;;;;;5.72;3.88;;;;;;;;;;5135817;27;20222;-82
2022/10/12 07:17:46;;;;;;;6.50;4.20;;;;;;;;;;5117758;27;20271;-84
2022/10/12 07:20:13;;;;;;;5.85;3.72;;;;;;;;;;5114240;28;20628;-82
2022/10/12 07:22:41;;;;;;;4.55;3.55;;;;;;;;;;5116023;28;20279;-82
2022/10/12 07:25:10;;;;;;;6.20;4.22;;;;;;;;;;5115007;28;20227;-82
2022/10/12 07:27:37;;;;;;;5.50;4.05;;;;;;;;;;5116151;28;20243;-82
2022/10/12 07:30:06;;;;;;;5.82;3.10;;;;;;;;;;5130163;28;20226;-82
2022/10/12 07:32:34;;;;;;;5.95;3.88;;;;;;;;;;5134666;28;20205;-82
2022/10/12 07:35:01;;;;;;;3.55;3.20;;;;;;;;;;5135431;27;20198;-82
2022/10/12 07:37:28;;;;;;;3.90;3.50;;;;;;;;;;5135564;28;20263;-82
2022/10/12 07:39:56;;;;;;;4.63;3.83;;;;;;;;;;5134712;28;20769;-83
2022/10/12 07:42:25;;;;;;;4.55;4.10;;;;;;;;;;5134880;27;20206;-82
2022/10/12 07:44:52;;;;;;;5.75;4.22;;;;;;;;;;5135130;27;20230;-82
2022/10/12 07:47:20;;;;;;;4.82;4.43;;;;;;;;;;5135179;28;20227;-83
2022/10/12 07:49:47;;;;;;;5.47;4.75;;;;;;;;;;5134236;27;20223;-83
2022/10/12 07:52:15;;;;;;;8.68;4.95;;;;;;;;;;5134765;27;20234;-84
2022/10/12 07:54:42;;;;;;;7.53;5.32;;;;;;;;;;5135278;27;20257;-82
2022/10/12 07:57:10;;;;;;;4.40;4.00;;;;;;;;;;5134964;27;20690;-84
2022/10/12 07:59:38;;;;;;;8.15;4.88;;;;;;;;;;5134749;28;20770;-83
2022/10/12 08:02:06;;;;;;;4.40;3.72;;;;;;;;;;5136187;27;20231;-85
2022/10/12 08:04:34;;;;;;;5.28;4.75;;;;;;;;;;5136406;28;20286;-84
2022/10/12 08:07:01;;;;;;;5.03;3.90;;;;;;;;;;5134865;28;20233;-83
2022/10/12 08:09:29;;;;;;;4.90;4.45;;;;;;;;;;5134563;28;20651;-82
2022/10/12 08:11:56;;;;;;;5.10;4.60;;;;;;;;;;5135488;28;20647;-82
2022/10/12 08:14:24;;;;;;;4.25;3.85;;;;;;;;;;5134282;27;20788;-82
2022/10/12 08:16:53;;;;;;;5.60;4.50;;;;;;;;;;5133899;28;20286;-82
2022/10/12 08:19:20;;;;;;;4.57;3.92;;;;;;;;;;5134546;27;20703;-82
2022/10/12 08:21:51;;;;;;;5.57;5.05;;;;;;;;;;5134742;28;20205;-82
2022/10/12 08:24:20;;;;;;;5.45;4.85;;;;;;;;;;5134357;28;20627;-82
2022/10/12 08:26:47;;;;;;;4.05;3.60;;;;;;;;;;5134532;28;20190;-82
2022/10/12 08:29:15;;;;;;;6.70;4.72;;;;;;;;;;5126795;28;20245;-82
2022/10/12 08:31:42;;;;;;;5.65;4.90;;;;;;;;;;5124299;28;20309;-82
2022/10/12 08:34:11;;;;;;;6.05;4.93;;;;;;;;;;5117859;28;20222;-83
2022/10/12 08:36:39;;;;;;;5.40;4.13;;;;;;;;;;5118580;28;20203;-82
2022/10/12 08:39:07;;;;;;;3.45;3.15;;;;;;;;;;5117593;28;20307;-83
2022/10/12 08:41:45;;;;;;;3.95;3.45;;;;;;;;;;5116655;28;20234;-83
2022/10/12 08:44:42;;;;;;;4.80;3.78;;;;;;;;;;5117957;28;20216;-84
2022/10/12 08:47:15;;;;;;;4.45;3.65;;;;;;;;;;5118462;28;20184;-82
2022/10/12 08:49:44;;;;;;;5.20;4.70;;;;;;;;;;5118263;28;20219;-84
2022/10/12 08:52:24;;;;;;;4.60;4.20;;;;;;;;;;5118168;28;20295;-83
2022/10/12 08:54:51;;;;;;;4.65;4.13;;;;;;;;;;5117619;28;20275;-82
2022/10/12 08:57:20;;;;;;;6.35;4.68;;;;;;;;;;5117634;28;20255;-83
2022/10/12 08:59:48;;;;;;;5.75;5.20;;;;;;;;;;5130334;27;20314;-83
2022/10/12 09:02:34;;;;;;;4.85;4.35;;;;;;;;;;5137659;27;20323;-85
2022/10/12 09:05:08;;;;;;;3.70;3.33;;;;;;;;;;5138346;27;20636;-83
2022/10/12 09:07:40;;;;;;;5.53;4.25;;;;;;;;;;5138026;27;20187;-83
2022/10/12 09:10:23;;;;;;;5.65;4.20;;;;;;;;;;5138211;27;20215;-83
2022/10/12 09:13:00;;;;;;;3.53;3.20;;;;;;;;;;5138304;27;20774;-84
2022/10/12 09:15:31;;;;;;;4.43;3.70;;;;;;;;;;5138525;27;20206;-83
2022/10/12 09:18:01;;;;;;;8.48;3.70;;;;;;;;;;5137580;27;20180;-83
2022/10/12 09:20:32;;;;;;;3.92;3.30;;;;;;;;;;5138846;27;20205;-83
2022/10/12 09:23:21;;;;;;;4.07;3.63;;;;;;;;;;5138145;27;20183;-84
2022/10/12 09:25:49;;;;;;;4.22;3.63;;;;;;;;;;5137727;27;20224;-82
2022/10/12 09:28:21;;;;;;;5.38;3.88;;;;;;;;;;5137987;27;20226;-83
2022/10/12 09:31:04;;;;;;;5.53;4.85;;;;;;;;;;5137396;27;20207;-84
2022/10/12 09:33:36;;;;;;;6.20;4.50;;;;;;;;;;5137223;27;20187;-83
2022/10/12 09:36:06;;;;;;;5.47;3.90;;;;;;;;;;5137706;27;20247;-84
2022/10/12 09:38:33;;;;;;;5.78;4.22;;;;;;;;;;5137322;27;20310;-83
2022/10/12 09:41:01;;;;;;;7.32;4.80;;;;;;;;;;5136600;27;20642;-84
2022/10/12 09:43:28;;;;;;;4.43;4.03;;;;;;;;;;5136183;27;20203;-84
2022/10/12 09:45:56;;;;;;;3.97;3.40;;;;;;;;;;5137853;27;20779;-84
2022/10/12 09:48:25;;;;;;;5.82;4.32;;;;;;;;;;5137120;27;20254;-84
2022/10/12 09:50:56;;;;;;;4.70;4.00;;;;;;;;;;5136856;27;20233;-85
2022/10/12 09:53:32;;;;;;;4.70;3.97;;;;;;;;;;5136681;27;20691;-85
2022/10/12 09:56:07;;;;;;;4.30;3.50;;;;;;;;;;5136716;27;20244;-85
2022/10/12 09:58:43;;;;;;;5.53;3.72;;;;;;;;;;5133736;27;20219;-85
2022/10/12 10:01:17;;;;;;;5.00;4.28;;;;;;;;;;5122807;27;20559;-86
2022/10/12 10:03:45;;;;;;;5.93;4.30;;;;;;;;;;5137094;27;20596;-85
2022/10/12 10:06:14;;;;;;;4.03;3.28;;;;;;;;;;5135899;27;20198;-86
2022/10/12 10:08:45;;;;;;;4.57;3.53;;;;;;;;;;5131130;22;20252;-82
2022/10/12 10:11:19;;;;;;;4.75;4.07;;;;;;;;;;5071016;28;20574;-83
2022/10/12 10:13:52;;;;;;;3.85;2.75;;;;;;;;;;5073388;28;20582;-82
2022/10/12 10:16:20;;;;;;;3.97;3.25;;;;;;;;;;5073451;28;20246;-83
2022/10/12 10:18:49;;;;;;;4.35;3.70;;;;;;;;;;5072795;28;20221;-82
2022/10/12 10:21:26;;;;;;;3.60;3.30;;;;;;;;;;5073262;28;20196;-83
2022/10/12 10:23:57;;;;;;;2.20;2.10;;;;;;;;;;5073365;28;20205;-83
2022/10/12 10:26:26;;;;;;;3.88;2.50;;;;;;;;;;5073465;28;20288;-82
2022/10/12 10:29:03;;;;;;;2.67;1.95;;;;;;;;;;5072669;28;20225;-82
2022/10/12 10:31:34;;;;;;;2.65;2.13;;;;;;;;;;5073256;28;20560;-82
2022/10/12 10:34:13;;;;;;;3.22;2.85;;;;;;;;;;5073079;28;20219;-80
2022/10/12 10:36:46;;;;;;;4.05;3.00;;;;;;;;;;5073299;28;20211;-82
2022/10/12 10:39:20;;;;;;;4.97;2.97;;;;;;;;;;5073093;28;20224;-82
2022/10/12 10:41:48;;;;;;;3.33;2.65;;;;;;;;;;5073537;28;20295;-83
2022/10/12 10:44:29;;;;;;;3.47;3.03;;;;;;;;;;5073322;28;20640;-84
2022/10/12 10:47:00;;;;;;;3.25;2.20;;;;;;;;;;5073573;28;20290;-83
2022/10/12 10:49:38;;;;;;;2.95;2.38;;;;;;;;;;5073324;28;20216;-82
2022/10/12 10:52:07;;;;;;;2.97;2.75;;;;;;;;;;5073170;28;20292;-83
2022/10/12 10:54:38;;;;;;;3.17;1.90;;;;;;;;;;5073022;28;20213;-83
2022/10/12 10:57:11;;;;;;;2.45;2.25;;;;;;;;;;5073050;28;20212;-83
2022/10/12 10:59:45;;;;;;;5.85;2.30;;;;;;;;;;5073087;28;20221;-83
2022/10/12 11:02:23;;;;;;;2.85;1.90;;;;;;;;;;5072510;28;20201;-82
2022/10/12 11:04:55;;;;;;;2.20;1.80;;;;;;;;;;5073482;28;20596;-83
2022/10/12 11:07:28;;;;;;;2.22;1.73;;;;;;;;;;5073422;28;20200;-83
2022/10/12 11:09:59;;;;;;;1.88;1.38;;;;;;;;;;5072324;28;20225;-83
2022/10/12 11:12:30;;;;;;;1.50;1.40;;;;;;;;;;5073017;28;20221;-83
2022/10/12 11:15:04;;;;;;;2.00;1.80;;;;;;;;;;5073414;28;20239;-85
2022/10/12 11:17:35;;;;;;;2.75;1.88;;;;;;;;;;5073187;28;20200;-84
2022/10/12 11:20:21;;;;;;;3.20;1.73;;;;;;;;;;5072531;28;20224;-83
2022/10/12 11:22:50;;;;;;;7.82;1.90;;;;;;;;;;5072923;28;20187;-84
2022/10/12 11:25:25;;;;;;;3.13;2.40;;;;;;;;;;5072733;28;20205;-83
2022/10/12 11:27:53;;;;;;;3.15;1.70;;;;;;;;;;5072715;28;20287;-82
2022/10/12 11:30:23;;;;;;;2.40;1.90;;;;;;;;;;5072340;28;20231;-84
2022/10/12 11:32:54;;;;;;;2.50;1.80;;;;;;;;;;5073203;28;20742;-85
2022/10/12 11:35:32;;;;;;;4.13;2.15;;;;;;;;;;5072271;28;20295;-83
2022/10/12 11:38:03;;;;;;;1.77;1.52;;;;;;;;;;5072441;28;20204;-84
2022/10/12 11:40:38;;;;;;;3.45;1.60;;;;;;;;;;5072417;28;20586;-85
2022/10/12 11:43:07;;;;;;;2.22;1.42;;;;;;;;;;5072970;28;20203;-84
2022/10/12 11:45:40;;;;;;;2.28;1.75;;;;;;;;;;5072417;28;20291;-85
2022/10/12 11:48:12;;;;;;;1.98;1.50;;;;;;;;;;5072122;28;20634;-85
2022/10/12 11:50:42;;;;;;;2.58;1.70;;;;;;;;;;5072011;28;20228;-83
2022/10/12 11:53:19;;;;;;;2.47;1.73;;;;;;;;;;5072084;28;20213;-83
2022/10/12 11:56:01;;;;;;;1.45;1.35;;;;;;;;;;5072974;28;20280;-85
2022/10/12 11:58:30;;;;;;;1.92;1.60;;;;;;;;;;5072167;28;20292;-84
2022/10/12 12:01:28;;;;;;;3.78;1.70;;;;;;;;;;5072130;28;20676;-83
2022/10/12 12:04:29;;;;;;;3.53;1.77;;;;;;;;;;5071772;28;20201;-85
2022/10/12 12:07:02;;;;;;;2.90;1.67;;;;;;;;;;5074090;28;20287;-84
2022/10/12 12:09:38;;;;;;;1.80;1.55;;;;;;;;;;5075797;28;20724;-84
2022/10/12 12:12:25;;;;;;;1.20;1.10;;;;;;;;;;5076068;28;20207;-84
2022/10/12 12:15:23;;;;;;;1.65;1.40;;;;;;;;;;5075887;28;20254;-85
2022/10/12 12:18:12;;;;;;;2.88;1.40;;;;;;;;;;5075403;28;20280;-84
2022/10/12 12:21:03;;;;;;;1.67;1.58;;;;;;;;;;5075405;28;20704;-84
2022/10/12 12:23:38;;;;;;;1.50;1.38;;;;;;;;;;5075787;28;20605;-84
2022/10/12 12:26:15;;;;;;;2.63;1.48;;;;;;;;;;5075728;28;20605;-85
2022/10/12 12:28:46;;;;;;;4.53;2.45;;;;;;;;;;5075378;28;20239;-85
2022/10/12 12:31:16;;;;;;;4.18;2.38;;;;;;;;;;5075488;28;20232;-86
2022/10/12 12:33:45;;;;;;;3.50;2.22;;;;;;;;;;5075264;28;20643;-84
2022/10/12 12:36:16;;;;;;;1.50;1.40;;;;;;;;;;5075356;28;20224;-86
2022/10/12 12:38:49;;;;;;;2.47;2.25;;;;;;;;;;5075164;28;20223;-83
2022/10/12 12:41:18;;;;;;;2.33;1.88;;;;;;;;;;5074871;28;20209;-83
2022/10/12 12:43:58;;;;;;;4.10;1.67;;;;;;;;;;5075609;28;20598;-85
2022/10/12 12:47:18;;;;;;;3.70;2.38;;;;;;;;;;5075091;28;20716;-85
2022/10/12 12:49:48;;;;;;;3.33;2.05;;;;;;;;;;5059766;28;20217;-86
2022/10/12 12:52:21;;;;;;;3.35;2.97;;;;;;;;;;5073782;28;20207;-83
2022/10/12 12:55:30;;;;;;;1.65;1.42;;;;;;;;;;5075295;28;20205;-84
2022/10/12 12:58:23;;;;;;;2.20;1.40;;;;;;;;;;5075044;28;20659;-83
2022/10/12 13:01:05;;;;;;;3.78;1.80;;;;;;;;;;5075351;28;20846;-84
2022/10/12 13:04:21;;;;;;;2.10;1.33;;;;;;;;;;5075191;28;20201;-82
2022/10/12 13:07:23;;;;;;;2.08;1.58;;;;;;;;;;5049200;28;20287;-85
2022/10/12 13:10:13;;;;;;;3.53;1.77;;;;;;;;;;5074382;28;20319;-84
2022/10/12 13:13:19;;;;;;;3.45;1.67;;;;;;;;;;5074828;28;20205;-85
2022/10/12 13:16:02;;;;;;;2.00;1.42;;;;;;;;;;5074641;28;20211;-83
2022/10/12 13:18:51;;;;;;;1.75;1.65;;;;;;;;;;5073620;28;20272;-83
2022/10/12 13:21:22;;;;;;;3.45;1.77;;;;;;;;;;5075133;28;20232;-83
2022/10/12 13:23:53;;;;;;;2.50;1.50;;;;;;;;;;5074696;28;20266;-83
2022/10/12 13:26:25;;;;;;;1.40;1.30;;;;;;;;;;5074697;28;20252;-83
2022/10/12 13:28:53;;;;;;;3.25;1.65;;;;;;;;;;5068814;28;20222;-84
2022/10/12 13:31:27;;;;;;;2.05;1.83;;;;;;;;;;5054244;28;20201;-86
2022/10/12 13:34:03;;;;;;;2.35;1.45;;;;;;;;;;5054733;28;20588;-83
2022/10/12 13:36:33;;;;;;;2.05;1.70;;;;;;;;;;5054835;28;20662;-84
2022/10/12 13:39:16;;;;;;;2.47;1.60;;;;;;;;;;5055147;28;20666;-82
2022/10/12 13:41:44;;;;;;;2.17;1.90;;;;;;;;;;5054439;28;20662;-84
2022/10/12 13:44:21;;;;;;;2.33;2.13;;;;;;;;;;5054546;28;20206;-82
2022/10/12 13:46:53;;;;;;;3.45;1.63;;;;;;;;;;5054151;28;20205;-84
2022/10/12 13:49:23;;;;;;;1.58;1.48;;;;;;;;;;5054165;28;20221;-83
2022/10/12 13:51:54;;;;;;;2.13;1.67;;;;;;;;;;5053904;28;20204;-82
2022/10/12 13:54:24;;;;;;;2.67;1.50;;;;;;;;;;5072006;28;20660;-82
2022/10/12 13:56:55;;;;;;;2.03;1.60;;;;;;;;;;5073876;28;20280;-83
2022/10/12 13:59:24;;;;;;;5.20;2.25;;;;;;;;;;5073636;28;20643;-85
2022/10/12 14:01:57;;;;;;;1.90;1.65;;;;;;;;;;5074763;28;20280;-85
2022/10/12 14:04:30;;;;;;;2.45;1.60;;;;;;;;;;5074501;28;20244;-84
2022/10/12 14:07:03;;;;;;;2.15;1.50;;;;;;;;;;5074275;28;20700;-85
2022/10/12 14:09:40;;;;;;;1.88;1.40;;;;;;;;;;5073060;28;20225;-85
2022/10/12 14:12:09;;;;;;;3.90;1.90;;;;;;;;;;5073322;28;20204;-85
2022/10/12 14:14:37;;;;;;;3.30;1.92;;;;;;;;;;5074101;28;20653;-85
2022/10/12 14:17:07;;;;;;;3.35;1.70;;;;;;;;;;5053523;28;20229;-84
2022/10/12 14:19:43;;;;;;;4.55;1.73;;;;;;;;;;5053923;28;20309;-83
2022/10/12 14:22:12;;;;;;;2.78;1.58;;;;;;;;;;5054258;28;20205;-82
2022/10/12 14:24:40;;;;;;;1.77;1.50;;;;;;;;;;5054700;28;20232;-85
2022/10/12 14:27:08;;;;;;;1.88;1.50;;;;;;;;;;5055046;28;20244;-84
2022/10/12 14:29:42;;;;;;;2.45;1.70;;;;;;;;;;5054119;28;20217;-84
2022/10/12 14:32:39;;;;;;;1.67;1.55;;;;;;;;;;5054657;28;20208;-82
2022/10/12 14:35:24;;;;;;;2.65;1.50;;;;;;;;;;5054898;28;20574;-82
2022/10/12 14:37:53;;;;;;;1.67;1.58;;;;;;;;;;5054239;28;20626;-82
2022/10/12 14:40:29;;;;;;;1.70;1.60;;;;;;;;;;5058886;28;20876;-84
2022/10/12 14:43:02;;;;;;;1.35;1.25;;;;;;;;;;5074262;28;20649;-83
2022/10/12 14:45:30;;;;;;;2.25;1.70;;;;;;;;;;5073572;28;20192;-82
2022/10/12 14:48:00;;;;;;;1.60;1.45;;;;;;;;;;5073369;28;20203;-82
2022/10/12 14:50:30;;;;;;;3.15;1.55;;;;;;;;;;5074808;28;20228;-83
2022/10/12 14:52:59;;;;;;;1.75;1.20;;;;;;;;;;5074569;28;20652;-82
2022/10/12 14:55:29;;;;;;;2.08;1.67;;;;;;;;;;5073228;28;20221;-82
2022/10/12 14:57:57;;;;;;;1.83;1.20;;;;;;;;;;5073615;28;20307;-83
2022/10/12 15:00:27;;;;;;;2.45;1.40;;;;;;;;;;5073949;28;20229;-84
2022/10/12 15:02:55;;;;;;;1.50;1.40;;;;;;;;;;5074409;28;20186;-83
2022/10/12 15:05:25;;;;;;;2.05;1.50;;;;;;;;;;5074518;28;20291;-83
2022/10/12 15:07:53;;;;;;;2.47;1.63;;;;;;;;;;5073883;28;20228;-82
2022/10/12 15:10:23;;;;;;;2.00;1.75;;;;;;;;;;5073197;28;20243;-83